Guiglo Airport


Codes: DIGL/GGO
Name: Guiglo Airport
City: Guiglo
Country: Cote dIvoire
Elevation: 722 ft.

Photos at Guiglo Airport


   Photos courtesy of SpottingLog. You can add your own sightings and photos by signing up for a free trial today.



No photos found.

Weather at Guiglo Airport


Time (UTC)DescriptionTempratureWindCloud coverageVisibilityPressureHumidity
13-Jun-2024 03:00Overcast Clouds23°C4 mph, SW100%10000m1013hPa95%
13-Jun-2024 06:00Light Rain22°C2 mph, SW100%10000m1013hPa97%
13-Jun-2024 09:00Overcast Clouds23°C4 mph, SW99%10000m1015hPa93%
13-Jun-2024 12:00Light Rain28°C4 mph, SW98%10000m1014hPa78%
13-Jun-2024 15:00Light Rain32°C2 mph, SW99%10000m1010hPa56%
13-Jun-2024 18:00Moderate Rain24°C4 mph, SW100%7873m1011hPa95%
13-Jun-2024 21:00Moderate Rain23°C4 mph, S95%9529m1015hPa99%
14-Jun-2024 00:00Light Rain22°C4 mph, SW97%10000m1015hPa99%
14-Jun-2024 03:00Overcast Clouds22°C2 mph, SW100%10000m1014hPa99%
14-Jun-2024 06:00Overcast Clouds22°C2 mph, S100%10000m1014hPa99%
14-Jun-2024 09:00Light Rain23°C2 mph, S100%10000m1016hPa98%
14-Jun-2024 12:00Light Rain25°C4 mph, S95%9652m1014hPa91%
14-Jun-2024 15:00Light Rain27°C2 mph, S79%8809m1011hPa87%
14-Jun-2024 18:00Moderate Rain24°C2 mph, S70%7492m1012hPa97%
14-Jun-2024 21:00Moderate Rain22°C4 mph, S88%10000m1015hPa99%
15-Jun-2024 00:00Overcast Clouds22°C4 mph, SW90%10000m1015hPa99%
15-Jun-2024 03:00Broken Clouds21°C2 mph, SW80%10000m1013hPa99%
15-Jun-2024 06:00Light Rain22°C2 mph, SW90%10000m1014hPa99%
15-Jun-2024 09:00Light Rain23°C2 mph, SW100%7131m1015hPa96%
15-Jun-2024 12:00Light Rain27°C4 mph, SW100%10000m1014hPa70%
15-Jun-2024 15:00Overcast Clouds26°C2 mph, S99%10000m1012hPa74%
15-Jun-2024 18:00Overcast Clouds27°C2 mph, SW94%10000m1011hPa73%
15-Jun-2024 21:00Overcast Clouds24°C4 mph, SW86%10000m1013hPa88%
16-Jun-2024 00:00Broken Clouds23°C4 mph, SW77%10000m1013hPa91%
16-Jun-2024 03:00Light Rain22°C2 mph, SW100%10000m1012hPa96%
16-Jun-2024 06:00Overcast Clouds22°C2 mph, SW100%10000m1012hPa96%
16-Jun-2024 09:00Overcast Clouds26°C4 mph, W89%10000m1014hPa75%
16-Jun-2024 12:00Light Rain28°C4 mph, W91%10000m1013hPa65%
16-Jun-2024 15:00Light Rain26°C4 mph, SW100%10000m1010hPa88%
16-Jun-2024 18:00Moderate Rain24°C2 mph, SW100%6038m1011hPa97%
16-Jun-2024 21:00Light Rain22°C2 mph, SW98%10000m1013hPa98%
17-Jun-2024 00:00Light Rain22°C2 mph, SW99%10000m1013hPa99%
17-Jun-2024 03:00Overcast Clouds22°C2 mph, SW100%10000m1012hPa99%
17-Jun-2024 06:00Overcast Clouds21°C2 mph, SW100%10000m1013hPa99%
17-Jun-2024 09:00Light Rain23°C2 mph, SW100%10000m1014hPa93%
17-Jun-2024 12:00Light Rain27°C2 mph, SW100%10000m1013hPa73%
17-Jun-2024 15:00Light Rain30°C4 mph, S88%10000m1010hPa64%
17-Jun-2024 18:00Moderate Rain25°C2 mph, S89%5405m1010hPa94%
17-Jun-2024 21:00Moderate Rain23°C4 mph, S99%10000m1013hPa98%
18-Jun-2024 00:00Overcast Clouds22°C4 mph, S97%10000m1013hPa99%